Charter Quote
Worldwide +1-877-727-2538 Call
Select Language Lang
SAFETY RELIABILITY EXPERIENCE

Private Jet Charter Services - Datong Airport (ZBDT)

Paramount Business Jets offers private jet charter flights and luxury airliner charters to and from Datong Airport.

AIRPORT INFORMATION
ICAOZBDT
IATADAT
LOCATIONDatong, China
FACILITY TYPEAIRPORT

At Paramount Business Jets you can hire chartered private jets to and from Datong Airport with as little as 4 hours of notice. All flights booked via Paramount Business Jets are operated by certified direct air carriers that meet and exceed the FAA part 135 and 121 protocol or a foreign equivalent safety authority. Furthermore, Paramount Business Jets subscribes to ARGUS for their third party safety checks of operators, aircraft, and crews prior each and every flight to and from Datong Airport and worldwide.

  • Quote a trip using Datong Airport or call us 24/7 - 365 days a year at +1-877-727-2538.
Questions? Call +1-877-727-2538

METAR Weather Data at Datong Airport, ZBDT, DAT

STATIONZBDT
OBSERVEDTue Jun 27, 03:00 UTC
NOWSun Nov 17, 04:58 UTC
AGE20953:58 hr ago
WINDSW at 7 mph
VISIBILITYgreater than 7 miles
CLOUDSclear skies
TEMP81°F (27°C)
DEWPT54°F (12°C)
HUMIDITY39%
BAROMETER1011 hPa (29.85 in Hg)
METARZBDT 270300Z 22003MPS 110V260 CAVOK 27/12 Q1011 NOSIG

Call us on +1-877-727-2538 (24 Hours) to Hire a Private Jet or Get a Quick Quote.

Find Airports Near any Location

Processing
...